Time;durP1;ratioP1;P1;durP2;ratioP2;P2;SDS_P1;SDS_P2;PMS_P1;PMS_P2;Temp;Humidity;BMP_temperature;BMP_pressure;BME280_temperature;BME280_humidity;BME280_pressure;Samples;Min_cycle;Max_cycle;Signal;HPM_P1;HPM_P2
2022/08/11 00:00:47;;;;;;;2.13;1.30;;;;;;;26.33;32.39;102074.03;5027842;27;96878;-66
2022/08/11 00:03:15;;;;;;;6.82;1.83;;;;;;;26.44;32.37;102067.75;5031946;27;100880;-66
2022/08/11 00:05:47;;;;;;;2.35;1.30;;;;;;;26.41;32.39;102074.25;5029932;27;99327;-66
2022/08/11 00:08:21;;;;;;;1.58;1.40;;;;;;;26.25;32.72;102071.09;5025323;28;97250;-66
2022/08/11 00:10:52;;;;;;;4.97;1.50;;;;;;;26.33;32.75;102068.59;5027257;28;97024;-67
2022/08/11 00:13:22;;;;;;;2.03;1.40;;;;;;;26.27;32.69;102074.53;5026955;27;99200;-67
2022/08/11 00:15:49;;;;;;;4.15;1.58;;;;;;;26.36;32.45;102065.66;5031435;27;99321;-65
2022/08/11 00:18:17;;;;;;;5.25;1.80;;;;;;;26.19;32.77;102076.94;5027806;27;97177;-67
2022/08/11 00:20:45;;;;;;;5.03;1.48;;;;;;;26.26;32.55;102080.91;5028091;27;98923;-67
2022/08/11 00:23:13;;;;;;;7.15;1.77;;;;;;;26.09;32.97;102074.13;5028450;28;99135;-66
2022/08/11 00:25:42;;;;;;;4.38;1.60;;;;;;;26.09;33.14;102076.84;5030869;27;99189;-66
2022/08/11 00:28:27;;;;;;;1.98;1.38;;;;;;;26.07;33.10;102078.78;5026704;28;97099;-67
2022/08/11 00:30:55;;;;;;;2.08;1.38;;;;;;;26.13;33.14;102077.44;5029520;28;98516;-67
2022/08/11 00:33:33;;;;;;;10.80;6.90;;;;;;;26.03;33.20;102076.47;5029621;27;100234;-66
2022/08/11 00:36:02;;;;;;;3.17;1.73;;;;;;;26.12;32.69;102073.03;5030277;28;100968;-67
2022/08/11 00:38:34;;;;;;;5.85;1.38;;;;;;;26.08;32.84;102071.53;5029202;28;97877;-67
2022/08/11 00:41:11;;;;;;;4.30;1.30;;;;;;;26.01;32.97;102064.88;5028416;28;97141;-66
2022/08/11 00:44:04;;;;;;;10.02;1.38;;;;;;;25.88;33.38;102066.84;5024866;28;101711;-68
2022/08/11 00:46:42;;;;;;;1.92;1.52;;;;;;;25.85;33.33;102072.50;5027274;28;98887;-66
2022/08/11 00:49:18;;;;;;;3.88;1.45;;;;;;;25.79;33.39;102066.59;5029642;28;96920;-67
2022/08/11 00:51:59;;;;;;;6.75;1.83;;;;;;;25.82;33.28;102067.31;5026136;28;96820;-66
2022/08/11 00:54:52;;;;;;;2.63;1.52;;;;;;;25.79;33.48;102069.31;5028671;28;100772;-67
2022/08/11 00:57:47;;;;;;;3.95;1.38;;;;;;;25.80;33.21;102073.72;5028564;28;98814;-66
2022/08/11 01:00:18;;;;;;;5.20;1.88;;;;;;;25.52;33.85;102068.72;5026637;28;97341;-67
2022/08/11 01:03:06;;;;;;;2.70;1.40;;;;;;;25.75;33.68;102069.66;5028841;28;98610;-67
2022/08/11 01:05:50;;;;;;;3.63;1.48;;;;;;;25.55;33.59;102073.88;5028121;27;99977;-67
2022/08/11 01:08:36;;;;;;;5.03;1.33;;;;;;;25.61;33.82;102081.56;5027283;28;99191;-67
2022/08/11 01:11:33;;;;;;;4.05;1.77;;;;;;;25.67;33.53;102081.06;5026961;28;96959;-65
2022/08/11 01:14:24;;;;;;;;;;;;;;;25.45;33.96;102077.44;5029054;28;97216;-66
2022/08/11 01:17:07;;;;;;;6.45;1.20;;;;;;;25.60;33.42;102074.41;5026188;28;98594;-66
2022/08/11 01:20:02;;;;;;;2.65;1.33;;;;;;;25.54;33.92;102074.84;5029488;27;98830;-66
2022/08/11 01:23:03;;;;;;;3.53;1.40;;;;;;;25.54;34.01;102074.84;5026465;28;96936;-67
2022/08/11 01:26:01;;;;;;;2.08;1.35;;;;;;;25.48;34.43;102080.75;5029259;28;98676;-68
2022/08/11 01:28:43;;;;;;;;;;;;;;;25.42;34.10;102083.94;5026939;28;98031;-67
2022/08/11 01:31:37;;;;;;;7.38;1.58;;;;;;;25.44;33.83;102073.88;5027979;27;99283;-68
2022/08/11 01:34:53;;;;;;;5.60;1.40;;;;;;;25.32;34.30;102077.50;5028829;28;97649;-69
2022/08/11 01:37:58;;;;;;;3.03;1.27;;;;;;;25.37;34.18;102081.59;5028267;28;97295;-69
2022/08/11 01:40:55;;;;;;;6.22;1.70;;;;;;;25.36;34.06;102081.69;5026304;28;98987;-69
2022/08/11 01:46:35;;;;;;;2.42;1.80;;;;;;;25.33;33.81;102073.84;5018822;28;97239;-69
2022/08/11 01:49:12;;;;;;;9.80;1.88;;;;;;;25.35;34.13;102075.41;5029052;28;97494;-70
2022/08/11 01:52:01;;;;;;;4.63;1.80;;;;;;;25.17;34.15;102076.84;5031316;27;99161;-69
2022/08/11 01:54:36;;;;;;;3.88;1.90;;;;;;;25.32;33.90;102069.41;5029887;28;99413;-69
2022/08/11 01:57:16;;;;;;;2.67;1.50;;;;;;;25.31;34.21;102071.25;5028105;28;96787;-69
2022/08/11 01:59:48;;;;;;;5.55;1.80;;;;;;;25.07;34.29;102072.25;5028049;28;97078;-69
2022/08/11 02:02:46;;;;;;;6.53;1.98;;;;;;;25.10;34.75;102069.28;5028131;28;99019;-68
2022/08/11 02:05:27;;;;;;;5.40;1.77;;;;;;;24.80;35.89;102072.44;5026712;28;98868;-68
2022/08/11 02:08:00;;;;;;;4.00;1.40;;;;;;;24.89;35.98;102063.63;5022180;28;96986;-68
2022/08/11 02:13:30;;;;;;;9.07;2.30;;;;;;;24.94;36.55;102065.03;5026956;28;97185;-68
2022/08/11 02:16:10;;;;;;;4.03;1.85;;;;;;;24.74;37.26;102072.91;5028812;27;98928;-68
2022/08/11 02:24:19;;;;;;;6.10;1.73;;;;;;;24.25;38.29;102064.81;5030922;28;97176;-69
2022/08/11 02:26:50;;;;;;;6.10;1.77;;;;;;;24.31;38.60;102070.63;5031204;28;98864;-69
2022/08/11 02:29:21;;;;;;;1.95;1.60;;;;;;;24.07;39.52;102067.84;5032078;27;97258;-69
2022/08/11 02:34:55;;;;;;;8.70;1.90;;;;;;;23.93;40.38;102062.53;5031080;28;97104;-69
2022/08/11 02:37:33;;;;;;;4.32;1.98;;;;;;;23.98;40.47;102060.38;5032117;28;97134;-68
2022/08/11 02:40:11;;;;;;;11.70;2.17;;;;;;;23.93;39.56;102057.16;5030601;28;97278;-68
2022/08/11 02:42:48;;;;;;;8.88;2.28;;;;;;;23.83;39.51;102064.16;5031729;28;97538;-68
2022/08/11 02:45:34;;;;;;;4.30;2.13;;;;;;;23.81;39.84;102064.28;5031958;28;99079;-69
2022/08/11 02:51:02;;;;;;;5.47;2.10;;;;;;;23.96;39.67;102056.06;5027120;28;96877;-68
2022/08/11 02:53:38;;;;;;;3.17;1.73;;;;;;;23.81;40.38;102053.47;5027125;28;96823;-69
2022/08/11 02:56:12;;;;;;;9.07;2.67;;;;;;;23.63;41.13;102052.03;5030969;27;100495;-67
2022/08/11 02:59:48;;;;;;;5.72;1.90;;;;;;;23.44;42.00;102059.66;5028947;27;98401;-68
2022/08/11 03:01:44;;;;;;;12.45;2.08;;;;;;;23.56;41.40;102053.47;5033022;28;96988;-68
2022/08/11 03:04:20;;;;;;;8.90;2.00;;;;;;;23.51;41.58;102054.75;5028750;28;96775;-68
2022/08/11 03:06:52;;;;;;;3.05;1.67;;;;;;;23.33;41.51;102056.84;5029869;28;100703;-67
2022/08/11 03:09:24;;;;;;;7.57;2.08;;;;;;;23.54;41.30;102062.63;5031004;27;99084;-67
2022/08/11 03:17:48;;;;;;;7.13;1.98;;;;;;;23.29;41.86;102053.50;5026340;27;97247;-68
2022/08/11 03:20:28;;;;;;;5.43;2.03;;;;;;;23.47;41.92;102061.28;5030662;27;98893;-68
2022/08/11 03:23:04;;;;;;;7.63;2.28;;;;;;;23.62;41.34;102054.88;5032812;28;97423;-68
2022/08/11 03:25:37;;;;;;;5.45;2.35;;;;;;;23.39;41.83;102059.13;5032257;28;96784;-67
2022/08/11 03:28:15;;;;;;;3.88;2.33;;;;;;;23.39;41.79;102059.97;5028909;27;98918;-69
2022/08/11 03:30:52;;;;;;;8.30;2.53;;;;;;;23.35;41.94;102068.41;5027705;28;98979;-68
2022/08/11 03:36:40;;;;;;;5.60;2.03;;;;;;;23.31;42.48;102054.25;5028745;28;96949;-68
2022/08/11 03:39:16;;;;;;;6.40;2.30;;;;;;;23.38;42.33;102060.94;5026993;28;97841;-68
2022/08/11 03:41:51;;;;;;;14.45;2.50;;;;;;;23.31;42.35;102056.94;5028408;28;99443;-68
2022/08/11 03:44:32;;;;;;;6.57;2.40;;;;;;;23.38;42.27;102055.56;5031733;28;96719;-68
2022/08/11 03:47:17;;;;;;;7.32;2.55;;;;;;;23.34;42.19;102059.44;5028488;28;97041;-68
2022/08/11 03:49:57;;;;;;;9.45;2.72;;;;;;;23.12;43.07;102061.00;5028051;28;98741;-68
2022/08/11 03:52:36;;;;;;;9.57;2.70;;;;;;;23.14;43.02;102059.94;5027115;28;98903;-68
2022/08/11 03:55:14;;;;;;;8.68;2.10;;;;;;;23.16;43.38;102062.53;5030636;28;96889;-68
2022/08/11 03:58:38;;;;;;;9.60;2.80;;;;;;;23.07;43.15;102058.59;5029642;28;96773;-67
2022/08/11 04:01:36;;;;;;;10.57;2.70;;;;;;;22.88;43.76;102058.97;5027147;28;101478;-67
2022/08/11 04:04:42;;;;;;;9.02;2.10;;;;;;;22.93;43.76;102059.53;5030504;28;99556;-68
2022/08/11 04:07:45;;;;;;;12.05;2.75;;;;;;;22.97;43.64;102060.22;5028012;28;97495;-68
2022/08/11 04:10:36;;;;;;;8.30;2.42;;;;;;;23.04;43.31;102058.81;5030347;28;97830;-69
2022/08/11 04:13:40;;;;;;;9.20;2.70;;;;;;;23.10;43.30;102055.72;5028605;28;98981;-68
2022/08/11 04:16:39;;;;;;;8.38;2.75;;;;;;;23.07;43.21;102052.34;5027694;28;98780;-69
2022/08/11 04:19:53;;;;;;;6.88;2.70;;;;;;;23.13;42.81;102054.63;5029693;27;96721;-67
2022/08/11 04:22:38;;;;;;;7.55;2.20;;;;;;;23.20;43.22;102055.94;5030422;28;97355;-67
2022/08/11 04:25:34;;;;;;;6.40;2.90;;;;;;;23.18;43.42;102050.66;5030253;28;99068;-68
2022/08/11 04:28:28;;;;;;;9.40;2.78;;;;;;;23.32;42.60;102058.66;5022742;28;98677;-68
2022/08/11 04:31:07;;;;;;;19.50;2.70;;;;;;;23.41;43.07;102063.44;5029670;28;96862;-69
2022/08/11 04:33:54;;;;;;;13.30;2.58;;;;;;;23.22;43.40;102062.13;5029068;28;97964;-69
2022/08/11 04:39:49;;;;;;;12.80;2.65;;;;;;;23.44;42.78;102071.31;4961832;27;97933;-68
2022/08/11 04:46:06;;;;;;;25.17;4.57;;;;;;;23.53;42.88;102071.69;5028785;28;96928;-69
2022/08/11 05:07:29;;;;;;;6.70;2.90;;;;;;;24.70;38.72;102072.25;5027204;27;96855;-68
2022/08/11 05:10:24;;;;;;;9.52;3.50;;;;;;;25.02;37.18;102080.69;5026915;28;97143;-67
2022/08/11 05:12:53;;;;;;;5.18;3.25;;;;;;;25.14;36.14;102076.22;5030030;28;99259;-69
2022/08/11 05:35:26;;;;;;;8.20;3.70;;;;;;;25.81;33.76;102085.41;5026487;28;97226;-68
2022/08/11 05:57:25;;;;;;;13.20;4.05;;;;;;;26.67;32.25;102099.25;5025890;27;97238;-68
2022/08/11 05:59:59;;;;;;;8.05;3.65;;;;;;;26.83;31.93;102093.44;5034205;27;99295;-68
2022/08/11 06:02:27;;;;;;;10.50;3.70;;;;;;;26.93;31.65;102097.13;5032765;28;96884;-68
2022/08/11 06:04:56;;;;;;;10.38;3.90;;;;;;;26.80;31.86;102105.38;5034406;27;96804;-68
2022/08/11 06:07:28;;;;;;;7.00;3.47;;;;;;;26.86;31.88;102096.72;5030396;27;99023;-68
2022/08/11 06:09:54;;;;;;;6.20;3.33;;;;;;;26.80;32.18;102099.09;5033903;28;99338;-68
2022/08/11 06:12:23;;;;;;;12.60;3.58;;;;;;;26.78;31.97;102106.50;5034335;28;96774;-67
2022/08/11 06:14:54;;;;;;;14.52;3.75;;;;;;;26.74;32.29;102100.47;5033761;28;96799;-67
2022/08/11 06:17:25;;;;;;;6.97;3.10;;;;;;;26.84;31.87;102101.44;5029153;27;99005;-67
2022/08/11 06:19:58;;;;;;;7.45;3.95;;;;;;;26.95;31.88;102097.84;5031769;27;99037;-68
2022/08/11 06:22:26;;;;;;;10.25;3.65;;;;;;;26.98;32.00;102106.59;5032934;28;97728;-69
2022/08/11 06:24:56;;;;;;;13.95;3.33;;;;;;;27.17;31.81;102105.94;5032831;28;97897;-67
2022/08/11 06:27:25;;;;;;;11.90;3.20;;;;;;;27.16;31.70;102115.06;5026120;28;99839;-66
2022/08/11 06:29:53;;;;;;;9.65;3.20;;;;;;;27.39;31.56;102110.38;5031226;28;99023;-66
2022/08/11 06:32:20;;;;;;;13.73;3.67;;;;;;;27.33;31.47;102106.34;5031604;27;96734;-66
2022/08/11 06:35:04;;;;;;;15.68;3.58;;;;;;;27.34;31.97;102105.34;5032208;28;97271;-66
2022/08/11 06:37:44;;;;;;;13.80;3.83;;;;;;;27.44;31.77;102112.72;5028802;28;97605;-66
2022/08/11 06:40:17;;;;;;;15.95;3.75;;;;;;;27.60;31.37;102111.31;5030752;28;98806;-66
2022/08/11 06:42:50;;;;;;;10.40;3.72;;;;;;;28.41;30.83;102117.81;5031992;28;97274;-66
2022/08/11 06:45:27;;;;;;;13.40;2.80;;;;;;;29.59;28.49;102108.72;5029403;28;97682;-66
2022/08/11 06:47:55;;;;;;;17.83;3.42;;;;;;;29.66;28.75;102109.88;5029468;28;99333;-66
2022/08/11 07:01:27;;;;;;;11.98;3.33;;;;;;;28.69;29.73;102117.03;4956481;28;96745;-66
2022/08/11 07:04:05;;;;;;;13.57;3.10;;;;;;;29.24;28.83;102107.41;4954118;28;96815;-67
2022/08/11 07:15:40;;;;;;;9.18;3.30;;;;;;;29.27;28.91;102096.25;4953828;28;97323;-67
2022/08/11 07:15:48;;;;;;;7.50;3.17;;;;;;;28.93;29.20;102098.53;4886557;28;97376;-67
2022/08/11 07:29:36;;;;;;;10.25;3.03;;;;;;;29.39;28.78;102088.84;4954408;28;96782;-66
2022/08/11 07:32:13;;;;;;;5.28;2.88;;;;;;;29.85;27.27;102089.91;4960492;28;98975;-66
2022/08/11 07:34:47;;;;;;;10.07;3.28;;;;;;;30.31;27.23;102092.63;4956486;28;99156;-66
2022/08/11 07:37:18;;;;;;;17.27;3.55;;;;;;;30.66;26.59;102091.03;4956906;28;97476;-68
2022/08/11 07:39:47;;;;;;;7.18;3.13;;;;;;;30.53;26.76;102093.25;4953362;28;97159;-67
2022/08/11 07:42:19;;;;;;;8.10;2.83;;;;;;;30.39;27.29;102086.44;4954857;28;99306;-67
2022/08/11 07:53:17;;;;;;;11.50;3.40;;;;;;;30.87;26.47;102084.28;4929720;28;97260;-66
2022/08/11 07:55:48;;;;;;;5.40;3.00;;;;;;;30.96;26.52;102087.13;4928101;28;99248;-66
2022/08/11 08:17:48;;;;;;;5.85;3.03;;;;;;;30.68;26.42;102081.69;4926143;28;97379;-66
2022/08/11 08:20:18;;;;;;;4.70;2.40;;;;;;;30.94;26.05;102089.13;4930808;28;96925;-67
2022/08/11 08:22:46;;;;;;;11.73;2.80;;;;;;;31.04;25.99;102088.06;4931889;28;97252;-67
2022/08/11 08:25:14;;;;;;;11.52;2.92;;;;;;;31.28;25.44;102082.84;4929572;28;99671;-67
2022/08/11 08:27:44;;;;;;;4.80;2.90;;;;;;;31.57;25.27;102079.00;4930616;28;100834;-67
2022/08/11 08:32:59;;;;;;;6.00;2.60;;;;;;;31.49;25.15;102078.94;4929873;28;97279;-67
2022/08/11 08:35:29;;;;;;;8.07;2.45;;;;;;;31.59;25.54;102077.84;4927622;28;99584;-67
2022/08/11 08:37:55;;;;;;;4.40;2.42;;;;;;;31.76;24.75;102081.56;4927738;28;101048;-68
2022/08/11 08:40:22;;;;;;;10.18;2.80;;;;;;;31.90;25.04;102072.75;4932300;28;96681;-67
2022/08/11 08:42:54;;;;;;;11.18;2.90;;;;;;;31.91;24.78;102068.16;4932199;28;97320;-67
2022/08/11 08:45:22;;;;;;;12.88;3.10;;;;;;;31.91;24.32;102070.88;4929946;28;96841;-66
2022/08/11 08:47:54;;;;;;;6.45;2.55;;;;;;;32.23;24.01;102073.81;4928869;28;99169;-67
2022/08/11 08:51:32;;;;;;;13.57;2.70;;;;;;;31.72;24.76;102074.69;4929765;28;96897;-67
2022/08/11 08:53:10;;;;;;;9.15;2.85;;;;;;;32.33;24.01;102070.97;4931071;28;97362;-67
2022/08/11 08:55:37;;;;;;;7.80;3.20;;;;;;;32.43;24.18;102077.16;4927984;28;99265;-67
2022/08/11 08:58:06;;;;;;;6.55;2.40;;;;;;;32.25;23.69;102068.19;4931076;28;99117;-67
2022/08/11 09:00:41;;;;;;;3.67;2.33;;;;;;;32.19;23.58;102066.13;4930001;28;98320;-67
2022/08/11 09:03:08;;;;;;;3.92;2.30;;;;;;;32.22;23.51;102071.28;4931279;28;96767;-66
2022/08/11 09:05:35;;;;;;;3.63;2.47;;;;;;;32.15;23.57;102067.47;4924776;28;98877;-66
2022/08/11 09:08:02;;;;;;;5.65;3.10;;;;;;;32.25;23.78;102068.19;4927769;28;98734;-67
2022/08/11 09:10:30;;;;;;;8.20;2.90;;;;;;;32.34;24.17;102062.59;4929111;28;96888;-67
2022/08/11 09:12:57;;;;;;;15.57;2.97;;;;;;;32.26;24.06;102067.19;4930661;28;96879;-67
2022/08/11 09:15:26;;;;;;;6.13;2.47;;;;;;;32.39;23.96;102062.09;4928592;28;98222;-66
2022/08/11 09:17:57;;;;;;;9.18;3.08;;;;;;;32.72;23.87;102057.63;4928827;28;98730;-66
2022/08/11 09:20:25;;;;;;;9.02;2.63;;;;;;;32.70;23.53;102060.53;4927513;28;96830;-66
2022/08/11 09:28:29;;;;;;;6.57;3.05;;;;;;;32.62;22.82;102062.38;4930974;28;97587;-67
2022/08/11 09:30:59;;;;;;;6.68;4.05;;;;;;;32.72;22.29;102058.47;4935136;28;96832;-66
2022/08/11 09:33:28;;;;;;;3.17;2.50;;;;;;;32.80;22.34;102065.84;4933276;28;96847;-67
2022/08/11 09:35:57;;;;;;;4.18;2.40;;;;;;;32.90;22.75;102061.06;4931870;28;98285;-67
2022/08/11 09:41:13;;;;;;;6.00;2.60;;;;;;;33.03;21.53;102058.69;4932097;28;96995;-67
2022/08/11 09:46:31;;;;;;;5.43;1.65;;;;;;;32.87;21.35;102055.09;4927688;28;97353;-65
2022/08/11 09:49:00;;;;;;;3.22;2.42;;;;;;;32.75;21.59;102044.47;4929879;28;98799;-67
2022/08/11 09:51:31;;;;;;;3.53;1.92;;;;;;;32.76;21.86;102039.81;4928153;28;97734;-65
2022/08/11 09:54:00;;;;;;;4.40;2.17;;;;;;;32.89;21.66;102042.94;4925626;28;98370;-67
2022/08/11 09:59:13;;;;;;;5.35;1.92;;;;;;;32.93;21.39;102038.84;4932027;28;97122;-66
2022/08/11 10:01:45;;;;;;;5.68;2.15;;;;;;;33.00;21.37;102034.41;4933531;28;96801;-66
2022/08/11 10:04:15;;;;;;;5.43;1.98;;;;;;;33.07;21.18;102032.72;4930853;28;96841;-66
2022/08/11 10:09:28;;;;;;;6.25;2.15;;;;;;;32.63;21.31;102025.75;4925988;28;97780;-68
2022/08/11 10:11:58;;;;;;;2.83;2.63;;;;;;;32.50;21.68;102026.22;4932207;28;96868;-68
2022/08/11 10:17:15;;;;;;;11.98;2.22;;;;;;;32.81;21.69;102019.16;4927808;28;97215;-67
2022/08/11 10:19:45;;;;;;;4.47;2.05;;;;;;;32.66;21.42;102019.94;4935656;28;98370;-67
2022/08/11 10:27:55;;;;;;;4.05;2.05;;;;;;;32.46;21.67;102011.19;4895960;28;98719;-67
2022/08/11 10:35:52;;;;;;;7.30;2.40;;;;;;;33.16;21.47;102009.75;4925320;28;97225;-67
2022/08/11 10:38:19;;;;;;;2.08;1.88;;;;;;;33.16;20.74;101995.19;4932156;28;99040;-67
2022/08/11 10:43:01;;;;;;;3.20;2.10;;;;;;;33.06;20.92;101994.53;4930344;28;98848;-67
2022/08/11 10:43:38;;;;;;;5.45;2.45;;;;;;;32.57;21.42;101993.59;4929191;28;97025;-67
2022/08/11 10:48:56;;;;;;;14.07;2.08;;;;;;;33.13;21.17;101984.59;4930600;28;97353;-67
2022/08/11 10:59:41;;;;;;;5.88;2.10;;;;;;;32.89;21.69;101977.22;4929833;28;97220;-66
2022/08/11 11:02:12;;;;;;;4.25;1.90;;;;;;;32.65;21.83;101978.03;4929037;28;99283;-67
2022/08/11 11:04:56;;;;;;;9.90;2.40;;;;;;;32.47;21.65;101974.59;4931379;28;97597;-68
2022/08/11 11:07:31;;;;;;;6.22;2.20;;;;;;;32.70;21.85;101972.94;4921366;28;97199;-67
2022/08/11 11:10:01;;;;;;;5.22;1.95;;;;;;;32.78;21.87;101964.75;4928036;28;99291;-67
2022/08/11 11:18:08;;;;;;;4.82;2.28;;;;;;;32.73;22.03;101969.03;4927507;28;97482;-67
2022/08/11 11:20:40;;;;;;;6.72;2.00;;;;;;;32.57;20.89;101963.47;4929053;28;98973;-68
2022/08/11 11:23:12;;;;;;;4.22;1.80;;;;;;;33.07;20.81;101957.91;4930343;28;98799;-66
2022/08/11 11:26:05;;;;;;;3.25;2.00;;;;;;;33.13;20.94;101954.47;4931261;28;97433;-67
2022/08/11 11:28:50;;;;;;;4.18;2.17;;;;;;;33.08;20.81;101952.25;4929706;28;96819;-66
2022/08/11 11:31:31;;;;;;;6.43;1.80;;;;;;;33.27;20.05;101948.34;4930705;28;100421;-67
2022/08/11 11:34:17;;;;;;;3.17;1.73;;;;;;;33.09;20.18;101942.16;4926466;28;98894;-67
2022/08/11 11:36:49;;;;;;;7.30;1.90;;;;;;;33.26;20.46;101941.16;4928264;28;97358;-67
2022/08/11 11:39:18;;;;;;;7.88;2.15;;;;;;;33.13;20.88;101941.66;4929305;28;96958;-66
2022/08/11 11:41:45;;;;;;;3.78;1.67;;;;;;;33.15;20.80;101934.09;4931164;28;99310;-66
2022/08/11 11:44:13;;;;;;;6.55;2.17;;;;;;;33.14;20.93;101940.63;4928328;28;99167;-66
2022/08/11 11:46:44;;;;;;;5.93;2.25;;;;;;;32.89;20.78;101938.91;4929911;28;97582;-66
2022/08/11 11:49:12;;;;;;;5.65;1.92;;;;;;;33.11;20.62;101942.84;4931290;28;97278;-66
2022/08/11 11:51:38;;;;;;;6.13;2.10;;;;;;;33.29;20.38;101938.03;4931095;28;99643;-66
2022/08/11 11:54:08;;;;;;;6.88;1.90;;;;;;;33.46;20.03;101931.53;4930905;28;98955;-67
2022/08/11 11:56:36;;;;;;;10.70;2.10;;;;;;;33.44;20.17;101930.84;4930495;28;96788;-67
2022/08/11 12:01:48;;;;;;;6.60;1.83;;;;;;;33.85;19.91;101925.25;4930373;28;97081;-66
2022/08/11 12:04:17;;;;;;;4.45;1.77;;;;;;;33.83;19.21;101927.28;4932663;28;98820;-66
2022/08/11 12:06:44;;;;;;;13.13;2.10;;;;;;;33.61;19.17;101918.78;4927671;28;97162;-67
2022/08/11 12:09:14;;;;;;;9.38;1.60;;;;;;;33.70;19.21;101921.50;4930197;28;96938;-66
2022/08/11 12:14:27;;;;;;;2.50;1.77;;;;;;;33.58;19.34;101908.19;4909367;28;97827;-66
2022/08/11 12:16:55;;;;;;;6.93;1.90;;;;;;;33.58;19.34;101907.31;4925914;28;97889;-67
2022/08/11 12:19:24;;;;;;;6.05;2.15;;;;;;;33.63;19.34;101905.75;4932577;28;96980;-67
2022/08/11 12:27:24;;;;;;;5.15;1.90;;;;;;;33.91;19.49;101891.63;4929119;28;96856;-67
2022/08/11 12:29:52;;;;;;;5.80;2.53;;;;;;;33.94;19.26;101903.06;4928093;28;97228;-67
2022/08/11 12:32:20;;;;;;;6.40;1.98;;;;;;;34.12;19.02;101901.97;4931647;28;99222;-66
2022/08/11 12:34:47;;;;;;;6.15;2.33;;;;;;;34.31;18.71;101888.66;4924670;28;98117;-66
2022/08/11 12:37:16;;;;;;;3.15;1.80;;;;;;;34.31;18.61;101894.16;4929011;28;97190;-67
2022/08/11 12:45:28;;;;;;;5.88;1.67;;;;;;;33.71;18.30;101879.38;4920300;28;97979;-67
2022/08/11 12:53:42;;;;;;;5.78;1.50;;;;;;;33.70;18.39;101874.91;4931637;28;97266;-66
2022/08/11 13:07:12;;;;;;;4.60;2.00;;;;;;;34.40;18.12;101860.13;4928013;28;97156;-66
2022/08/11 13:09:41;;;;;;;4.72;1.85;;;;;;;34.34;17.75;101860.00;4928298;28;97065;-66
2022/08/11 13:14:54;;;;;;;7.20;1.80;;;;;;;35.51;16.82;101845.69;4922426;28;97150;-66
2022/08/11 13:17:21;;;;;;;2.90;1.63;;;;;;;36.36;16.38;101851.38;4926865;28;98835;-66
2022/08/11 13:19:49;;;;;;;3.95;1.58;;;;;;;37.28;15.82;101857.66;4927003;28;97222;-66
2022/08/11 13:22:17;;;;;;;18.77;1.80;;;;;;;37.80;15.10;101847.97;4931260;28;97699;-67
2022/08/11 13:24:45;;;;;;;6.38;1.70;;;;;;;38.75;14.65;101853.25;4928797;28;99369;-66
2022/08/11 13:27:13;;;;;;;2.63;2.00;;;;;;;39.43;13.90;101845.53;4928881;28;99240;-67
2022/08/11 13:29:42;;;;;;;3.72;1.92;;;;;;;39.40;13.63;101840.41;4930690;28;96805;-66
2022/08/11 13:32:10;;;;;;;3.25;1.92;;;;;;;40.82;12.75;101843.63;4930146;28;97449;-66
2022/08/11 13:34:40;;;;;;;3.75;1.60;;;;;;;41.91;11.95;101837.28;4924153;28;99419;-67
2022/08/11 13:37:08;;;;;;;4.10;1.98;;;;;;;42.82;11.02;101836.91;4924930;28;99774;-66
2022/08/11 13:39:36;;;;;;;5.80;1.80;;;;;;;43.16;10.76;101838.00;4927967;28;97269;-67
2022/08/11 13:42:04;;;;;;;5.65;1.63;;;;;;;43.52;10.54;101836.84;4928979;28;97483;-67
2022/08/11 13:44:37;;;;;;;2.35;1.48;;;;;;;43.80;10.27;101832.38;4921710;28;99433;-68
2022/08/11 13:47:06;;;;;;;4.80;1.48;;;;;;;44.54;10.05;101820.13;4922717;28;100504;-67
2022/08/11 13:49:36;;;;;;;8.52;2.28;;;;;;;44.97;9.51;101827.78;4924515;28;98587;-68
2022/08/11 13:52:04;;;;;;;6.25;1.52;;;;;;;45.63;9.10;101825.91;4926535;28;96879;-67
2022/08/11 13:54:33;;;;;;;3.22;1.60;;;;;;;45.51;8.94;101830.78;4925010;28;98924;-66
2022/08/11 13:57:07;;;;;;;4.13;1.70;;;;;;;45.54;8.88;101825.53;4924481;28;98162;-66
2022/08/11 13:59:36;;;;;;;5.75;1.60;;;;;;;45.99;8.48;101819.63;4924661;28;97296;-67
2022/08/11 14:02:04;;;;;;;5.53;1.50;;;;;;;46.87;8.20;101822.88;4925396;28;97174;-66
2022/08/11 14:04:36;;;;;;;3.38;1.55;;;;;;;47.43;7.93;101814.81;4924258;28;98911;-67
2022/08/11 14:07:07;;;;;;;8.90;1.50;;;;;;;47.83;7.42;101828.13;4922244;28;98564;-68
2022/08/11 14:09:36;;;;;;;7.95;2.80;;;;;;;48.64;7.02;101831.00;4925481;28;97137;-67
2022/08/11 14:15:03;;;;;;;6.63;1.50;;;;;;;49.26;6.73;101819.38;4927208;28;98815;-67
2022/08/11 14:17:33;;;;;;;4.55;1.55;;;;;;;49.12;6.07;101828.69;4926694;28;98343;-67
2022/08/11 14:20:06;;;;;;;2.50;1.05;;;;;;;50.12;6.46;101818.88;4928733;28;98048;-67
2022/08/11 14:22:33;;;;;;;6.25;1.42;;;;;;;50.44;6.11;101807.09;4927142;28;98310;-66
2022/08/11 14:25:00;;;;;;;6.25;1.52;;;;;;;50.19;5.70;101811.00;4922661;28;99169;-67
2022/08/11 14:27:29;;;;;;;1.23;1.13;;;;;;;49.95;6.35;101804.44;4924503;28;98800;-67
2022/08/11 14:29:58;;;;;;;9.27;1.77;;;;;;;51.03;5.80;101808.75;4921443;28;98552;-67
2022/08/11 14:32:25;;;;;;;5.50;1.75;;;;;;;50.37;5.44;101800.97;4927636;28;97276;-68
2022/08/11 14:34:52;;;;;;;3.67;1.30;;;;;;;51.08;4.90;101800.25;4929256;28;99320;-67
2022/08/11 14:37:22;;;;;;;6.25;1.70;;;;;;;49.72;5.50;101794.72;4919412;28;99511;-68
2022/08/11 14:39:52;;;;;;;3.17;2.50;;;;;;;50.67;5.59;101793.41;4924077;28;96932;-66
2022/08/11 14:48:10;;;;;;;2.53;1.20;;;;;;;51.10;5.04;101797.97;4923454;28;98702;-67
2022/08/11 14:50:37;;;;;;;2.47;1.17;;;;;;;50.87;5.39;101790.41;4929674;28;99673;-67
2022/08/11 14:53:07;;;;;;;3.42;1.17;;;;;;;52.07;4.65;101791.81;4929602;28;97971;-66
2022/08/11 14:58:23;;;;;;;5.78;1.00;;;;;;;51.93;4.32;101793.72;4923646;28;97502;-65
2022/08/11 15:00:53;;;;;;;2.13;1.00;;;;;;;52.17;4.22;101789.69;4924279;28;97216;-66
2022/08/11 15:03:20;;;;;;;1.63;0.80;;;;;;;50.98;5.05;101784.34;4927928;28;97213;-67
2022/08/11 15:05:49;;;;;;;5.07;0.90;;;;;;;48.79;5.86;101776.88;4920840;28;98893;-66
2022/08/11 15:08:17;;;;;;;4.07;0.90;;;;;;;47.35;6.60;101776.16;4925041;28;99022;-66
2022/08/11 15:10:44;;;;;;;4.00;1.20;;;;;;;44.98;7.98;101770.91;4930400;28;97227;-66
2022/08/11 15:13:11;;;;;;;4.50;0.98;;;;;;;42.75;8.78;101763.91;4930162;28;98209;-67
2022/08/11 15:18:25;;;;;;;1.63;0.90;;;;;;;39.94;10.23;101764.41;4924713;28;97151;-66
2022/08/11 15:37:42;;;;;;;9.45;1.23;;;;;;;36.67;13.38;101741.75;4924308;28;96810;-66
2022/08/11 15:45:52;;;;;;;7.65;1.90;;;;;;;36.20;13.82;101738.81;4924106;28;97605;-67
2022/08/11 15:48:25;;;;;;;7.10;1.08;;;;;;;35.94;13.93;101736.63;4923830;28;98428;-66
2022/08/11 15:51:08;;;;;;;6.72;1.58;;;;;;;35.97;14.80;101738.16;4929503;28;98921;-67
2022/08/11 15:53:39;;;;;;;1.13;1.02;;;;;;;35.91;14.43;101737.88;4923783;28;97033;-67
2022/08/11 15:56:08;;;;;;;1.25;0.98;;;;;;;35.83;14.05;101739.91;4922286;28;96953;-68
2022/08/11 16:04:15;;;;;;;5.07;1.00;;;;;;;35.36;14.79;101729.41;4925567;28;97820;-67
2022/08/11 16:06:47;;;;;;;3.40;0.98;;;;;;;35.24;14.15;101730.97;4926801;28;98557;-66
2022/08/11 16:09:15;;;;;;;3.85;0.98;;;;;;;35.13;14.19;101732.25;4929563;28;99147;-66
2022/08/11 16:11:44;;;;;;;4.57;1.20;;;;;;;35.05;14.12;101727.72;4925823;28;98961;-67
2022/08/11 16:16:58;;;;;;;5.40;1.10;;;;;;;34.87;14.61;101718.16;4924507;28;96832;-67
2022/08/11 16:19:27;;;;;;;3.83;1.15;;;;;;;34.93;13.88;101718.25;4921837;28;100699;-67
2022/08/11 16:21:56;;;;;;;4.60;1.13;;;;;;;34.89;14.33;101716.94;4926388;28;99326;-67
2022/08/11 16:24:24;;;;;;;2.55;1.55;;;;;;;34.96;15.04;101715.16;4923473;28;97273;-66
2022/08/11 16:26:54;;;;;;;4.63;1.10;;;;;;;34.91;14.95;101725.84;4926919;28;97099;-67
2022/08/11 16:29:25;;;;;;;5.07;1.30;;;;;;;34.88;14.38;101722.63;4926966;28;99049;-67
2022/08/11 16:40:10;;;;;;;6.60;1.00;;;;;;;34.56;14.96;101716.44;4927196;28;98425;-68
2022/08/11 16:48:08;;;;;;;2.55;1.30;;;;;;;34.56;15.03;101721.91;4929054;28;98587;-67
2022/08/11 16:50:37;;;;;;;1.75;1.13;;;;;;;34.28;14.67;101718.09;4924967;28;99403;-67